Time;durP1;ratioP1;P1;durP2;ratioP2;P2;SDS_P1;SDS_P2;PMS_P1;PMS_P2;Temp;Humidity;BMP_temperature;BMP_pressure;BME280_temperature;BME280_humidity;BME280_pressure;Samples;Min_cycle;Max_cycle;Signal;HPM_P1;HPM_P2
2022/07/08 00:02:06;;;;;;;3.70;2.60;;;14.70;99.90;;;;;;5053623;28;20237;-82
2022/07/08 00:04:32;;;;;;;4.45;2.55;;;14.60;99.90;;;;;;5053906;28;20183;-81
2022/07/08 00:06:58;;;;;;;3.63;2.92;;;14.70;99.90;;;;;;5053658;28;20259;-81
2022/07/08 00:09:26;;;;;;;2.75;2.45;;;14.70;99.90;;;;;;5052992;28;20187;-81
2022/07/08 00:11:53;;;;;;;2.97;2.30;;;14.70;99.90;;;;;;5053200;28;20183;-81
2022/07/08 00:14:18;;;;;;;3.47;2.47;;;14.70;99.90;;;;;;5052783;28;20205;-81
2022/07/08 00:16:44;;;;;;;3.60;2.72;;;14.70;99.90;;;;;;5053162;28;20176;-82
2022/07/08 00:19:12;;;;;;;3.92;3.38;;;14.70;99.90;;;;;;5034794;28;20573;-82
2022/07/08 00:21:38;;;;;;;3.97;2.80;;;14.70;99.90;;;;;;5052988;28;20191;-81
2022/07/08 00:24:04;;;;;;;3.17;2.47;;;14.70;99.90;;;;;;5052947;28;20606;-82
2022/07/08 00:26:30;;;;;;;4.00;2.65;;;14.80;99.90;;;;;;5053019;28;20688;-81
2022/07/08 00:28:56;;;;;;;3.55;2.55;;;14.80;99.90;;;;;;5052616;28;20211;-81
2022/07/08 00:31:22;;;;;;;3.58;2.78;;;14.80;99.90;;;;;;5052436;28;20274;-81
2022/07/08 00:33:48;;;;;;;3.33;2.80;;;14.80;99.90;;;;;;5052890;28;20267;-81
2022/07/08 00:36:13;;;;;;;3.42;2.80;;;14.80;99.90;;;;;;5052384;28;20254;-81
2022/07/08 00:38:39;;;;;;;6.50;3.05;;;14.80;99.90;;;;;;5052767;28;20724;-81
2022/07/08 00:41:05;;;;;;;2.97;2.67;;;14.80;99.90;;;;;;5052091;28;20172;-84
2022/07/08 00:43:37;;;;;;;2.40;2.20;;;14.80;99.90;;;;;;5052563;28;20207;-81
2022/07/08 00:46:03;;;;;;;4.55;2.78;;;14.80;99.90;;;;;;5053280;28;20222;-81
2022/07/08 00:48:29;;;;;;;5.93;2.70;;;14.80;99.90;;;;;;5052236;28;20177;-82
2022/07/08 00:50:54;;;;;;;3.05;2.67;;;14.80;99.90;;;;;;5052698;28;20507;-82
2022/07/08 00:53:22;;;;;;;4.30;3.15;;;14.80;99.90;;;;;;5052490;28;20202;-82
2022/07/08 00:55:47;;;;;;;3.35;2.67;;;14.80;99.90;;;;;;5052706;28;20172;-81
2022/07/08 00:58:14;;;;;;;4.43;3.00;;;14.80;99.90;;;;;;5034562;28;20188;-81
2022/07/08 01:00:40;;;;;;;5.18;3.08;;;14.80;99.90;;;;;;5035075;28;20204;-82
2022/07/08 01:03:06;;;;;;;5.38;3.28;;;14.90;99.90;;;;;;5052643;28;20188;-82
2022/07/08 01:05:31;;;;;;;4.15;2.97;;;14.90;99.90;;;;;;5052203;28;20528;-81
2022/07/08 01:07:57;;;;;;;4.57;3.17;;;14.90;99.90;;;;;;5052446;28;20314;-81
2022/07/08 01:10:23;;;;;;;5.38;3.45;;;14.90;99.90;;;;;;5052633;28;20645;-82
2022/07/08 01:12:49;;;;;;;3.42;2.83;;;14.90;99.90;;;;;;5053595;28;20176;-82
2022/07/08 01:15:14;;;;;;;4.95;3.15;;;14.90;99.90;;;;;;5055977;28;20183;-83
2022/07/08 01:17:44;;;;;;;3.38;2.75;;;15.00;99.90;;;;;;5038554;28;20176;-81
2022/07/08 01:20:11;;;;;;;4.28;3.17;;;15.00;99.90;;;;;;5055629;28;20615;-87
2022/07/08 01:22:37;;;;;;;3.80;3.33;;;15.00;99.90;;;;;;5056171;28;20201;-82
2022/07/08 01:25:04;;;;;;;3.72;3.25;;;15.00;99.90;;;;;;5038104;28;20609;-82
2022/07/08 01:27:30;;;;;;;4.13;3.03;;;15.00;99.90;;;;;;5037713;28;20188;-81
2022/07/08 01:29:57;;;;;;;5.47;3.50;;;15.10;99.90;;;;;;5056135;28;20188;-82
2022/07/08 01:32:22;;;;;;;6.68;3.72;;;15.00;99.90;;;;;;5055746;28;20176;-82
2022/07/08 01:34:48;;;;;;;3.55;2.45;;;15.00;99.90;;;;;;5038125;28;20625;-81
2022/07/08 01:37:13;;;;;;;3.72;2.60;;;15.00;99.90;;;;;;5055824;28;20184;-82
2022/07/08 01:39:39;;;;;;;6.30;3.40;;;15.00;99.90;;;;;;5055926;28;20672;-81
2022/07/08 01:42:05;;;;;;;3.28;2.83;;;15.10;99.90;;;;;;5055567;28;20191;-81
2022/07/08 01:44:32;;;;;;;4.28;3.08;;;15.00;99.90;;;;;;5055561;28;20172;-81
2022/07/08 01:46:57;;;;;;;3.67;3.03;;;15.10;99.90;;;;;;5055786;28;20183;-81
2022/07/08 01:49:23;;;;;;;5.88;3.17;;;15.00;99.90;;;;;;5055158;28;20706;-81
2022/07/08 01:51:48;;;;;;;4.50;3.15;;;15.00;99.90;;;;;;5037919;28;20184;-82
2022/07/08 01:54:14;;;;;;;7.00;2.88;;;14.90;99.90;;;;;;5055527;28;20600;-86
2022/07/08 01:56:41;;;;;;;5.95;2.80;;;15.00;99.90;;;;;;5055591;28;20180;-82
2022/07/08 01:59:07;;;;;;;6.45;2.67;;;15.00;99.90;;;;;;5055426;28;20247;-82
2022/07/08 02:01:32;;;;;;;6.57;3.03;;;15.00;99.90;;;;;;5037311;28;20617;-82
2022/07/08 02:04:01;;;;;;;3.15;2.75;;;14.80;99.90;;;;;;5037688;28;20692;-81
2022/07/08 02:06:28;;;;;;;4.38;3.00;;;14.90;99.90;;;;;;5054912;28;20198;-81
2022/07/08 02:08:54;;;;;;;4.50;2.83;;;14.90;99.90;;;;;;5037482;28;20182;-81
2022/07/08 02:14:03;;;;;;;7.70;3.42;;;14.80;99.90;;;;;;5055116;28;20226;-82
2022/07/08 02:16:29;;;;;;;3.47;2.83;;;14.80;99.90;;;;;;5054935;28;20639;-82
2022/07/08 02:18:54;;;;;;;3.95;3.10;;;14.70;99.90;;;;;;5055280;28;20212;-81
2022/07/08 02:21:20;;;;;;;3.03;2.72;;;14.70;99.90;;;;;;5055045;28;20180;-82
2022/07/08 02:23:45;;;;;;;35.63;13.10;;;14.80;99.90;;;;;;5037484;28;20685;-80
2022/07/08 02:26:11;;;;;;;14.70;9.00;;;14.80;99.90;;;;;;5053939;28;20183;-80
2022/07/08 02:28:37;;;;;;;12.75;6.28;;;14.70;99.90;;;;;;5054982;28;20222;-80
2022/07/08 02:31:02;;;;;;;9.45;4.18;;;14.80;99.90;;;;;;5054848;28;20717;-80
2022/07/08 02:33:28;;;;;;;4.72;3.22;;;14.80;99.90;;;;;;5055235;28;20188;-80
2022/07/08 02:35:53;;;;;;;5.30;2.85;;;14.80;99.90;;;;;;5055604;28;20625;-80
2022/07/08 02:38:20;;;;;;;3.47;2.70;;;14.80;99.90;;;;;;5055493;28;20629;-80
2022/07/08 02:40:46;;;;;;;4.75;2.65;;;14.90;99.90;;;;;;5055543;28;20215;-80
2022/07/08 02:43:12;;;;;;;5.40;3.33;;;14.80;99.90;;;;;;5054720;28;20225;-80
2022/07/08 02:45:38;;;;;;;3.22;2.42;;;14.90;99.90;;;;;;5037146;28;20267;-80
2022/07/08 02:48:07;;;;;;;4.78;2.97;;;14.90;99.90;;;;;;5056466;28;20183;-79
2022/07/08 02:50:32;;;;;;;4.13;2.80;;;14.90;99.90;;;;;;5055192;28;20633;-80
2022/07/08 02:52:58;;;;;;;4.18;2.72;;;14.90;99.90;;;;;;5054511;28;20180;-80
2022/07/08 02:55:24;;;;;;;4.65;3.15;;;14.90;99.90;;;;;;5054301;28;20629;-83
2022/07/08 02:57:50;;;;;;;8.23;3.00;;;15.00;99.90;;;;;;5036537;28;20184;-81
2022/07/08 03:00:16;;;;;;;3.60;2.70;;;14.90;99.90;;;;;;5036558;28;20294;-81
2022/07/08 03:02:41;;;;;;;4.22;3.03;;;15.00;99.90;;;;;;5036451;28;20222;-82
2022/07/08 03:05:07;;;;;;;3.55;2.92;;;15.00;99.90;;;;;;5054576;28;20172;-81
2022/07/08 03:07:33;;;;;;;3.80;2.88;;;15.00;99.90;;;;;;5036619;28;20194;-82
2022/07/08 03:09:58;;;;;;;5.93;3.08;;;15.00;99.90;;;;;;5036798;28;20199;-82
2022/07/08 03:12:25;;;;;;;3.47;2.75;;;15.00;99.90;;;;;;5036547;28;20193;-81
2022/07/08 03:14:51;;;;;;;3.65;2.60;;;15.00;99.90;;;;;;5054263;28;20171;-81
2022/07/08 03:17:16;;;;;;;3.97;2.65;;;15.00;99.90;;;;;;5054909;28;20607;-80
2022/07/08 03:19:42;;;;;;;4.43;2.80;;;15.00;99.90;;;;;;5039372;28;20210;-82
2022/07/08 03:22:08;;;;;;;7.93;4.18;;;15.00;99.90;;;;;;5055783;28;20758;-81
2022/07/08 03:24:33;;;;;;;3.65;2.85;;;15.10;99.90;;;;;;5053889;28;20251;-82
2022/07/08 03:26:59;;;;;;;4.35;2.75;;;15.10;99.90;;;;;;5054144;28;20540;-81
2022/07/08 03:29:25;;;;;;;3.88;3.13;;;15.10;99.90;;;;;;5054550;28;20637;-82
2022/07/08 03:31:50;;;;;;;5.20;3.25;;;15.10;99.90;;;;;;5023396;28;20172;-82
2022/07/08 03:34:16;;;;;;;4.35;3.33;;;15.10;99.90;;;;;;5047948;28;20219;-83
2022/07/08 03:36:41;;;;;;;5.85;3.00;;;15.20;99.90;;;;;;5024525;28;20278;-85
2022/07/08 03:39:07;;;;;;;4.22;3.25;;;15.20;99.90;;;;;;5036350;28;20576;-83
2022/07/08 03:41:33;;;;;;;4.15;2.85;;;15.20;99.90;;;;;;5045825;28;20219;-85
2022/07/08 03:43:59;;;;;;;6.13;2.97;;;15.20;99.90;;;;;;5015519;28;20185;-86
2022/07/08 03:46:25;;;;;;;3.05;2.60;;;15.30;99.90;;;;;;5024654;28;20532;-84
2022/07/08 03:48:51;;;;;;;5.28;2.63;;;15.30;99.90;;;;;;5052842;28;20564;-84
2022/07/08 03:51:17;;;;;;;4.38;2.80;;;15.40;99.90;;;;;;5053277;28;20184;-85
2022/07/08 03:53:44;;;;;;;3.40;2.45;;;15.40;99.90;;;;;;5045088;28;20187;-84
2022/07/08 03:56:10;;;;;;;4.15;2.60;;;15.50;99.90;;;;;;5053401;28;20258;-83
2022/07/08 03:58:36;;;;;;;2.63;2.10;;;15.50;99.90;;;;;;5052277;28;20254;-83
2022/07/08 04:01:02;;;;;;;3.55;2.30;;;15.60;99.90;;;;;;5053199;28;20226;-83
2022/07/08 04:03:28;;;;;;;6.22;2.92;;;15.60;99.90;;;;;;5053849;28;20187;-83
2022/07/08 04:05:53;;;;;;;3.08;2.30;;;15.70;99.90;;;;;;5058351;28;20271;-83
2022/07/08 04:08:19;;;;;;;1.92;1.75;;;15.70;99.90;;;;;;5032465;28;20653;-81
2022/07/08 04:10:45;;;;;;;2.95;1.92;;;15.70;99.90;;;;;;5049714;28;20241;-83
2022/07/08 04:13:10;;;;;;;2.58;1.88;;;15.70;99.90;;;;;;5039596;28;20200;-83
2022/07/08 04:15:36;;;;;;;3.53;1.80;;;15.90;99.90;;;;;;5038171;28;20188;-88
2022/07/08 04:18:02;;;;;;;2.97;1.75;;;15.90;99.90;;;;;;5038485;28;20175;-82
2022/07/08 04:20:28;;;;;;;2.83;2.08;;;16.00;99.90;;;;;;5040848;28;20223;-83
2022/07/08 04:22:54;;;;;;;2.10;1.83;;;16.00;99.90;;;;;;5062907;28;20176;-85
2022/07/08 04:25:19;;;;;;;3.72;1.85;;;16.00;99.90;;;;;;5054539;28;20195;-83
2022/07/08 04:27:45;;;;;;;2.40;1.88;;;16.00;99.90;;;;;;5037706;28;20195;-84
2022/07/08 04:30:11;;;;;;;4.18;1.83;;;16.10;99.90;;;;;;5069885;28;20203;-87
2022/07/08 04:32:37;;;;;;;2.20;2.00;;;16.10;99.90;;;;;;5075026;28;20187;-87
2022/07/08 04:35:03;;;;;;;2.88;2.13;;;16.10;99.90;;;;;;5058042;28;20192;-85
2022/07/08 04:37:29;;;;;;;2.33;2.13;;;16.20;99.90;;;;;;5052928;28;20191;-83
2022/07/08 04:39:55;;;;;;;3.75;2.25;;;16.20;99.90;;;;;;5033043;28;20699;-84
2022/07/08 04:42:21;;;;;;;6.55;2.40;;;16.30;99.90;;;;;;5048546;28;20241;-84
2022/07/08 04:44:47;;;;;;;5.35;2.22;;;16.30;99.90;;;;;;5042860;28;20280;-84
2022/07/08 04:47:13;;;;;;;3.55;2.25;;;16.30;99.90;;;;;;5033319;28;20648;-83
2022/07/08 04:49:38;;;;;;;3.15;2.08;;;16.50;99.90;;;;;;5054848;28;20195;-86
2022/07/08 04:52:07;;;;;;;4.18;2.20;;;16.50;99.90;;;;;;5055218;28;20191;-83
2022/07/08 04:54:34;;;;;;;4.72;2.00;;;16.50;99.90;;;;;;5037226;28;20192;-83
2022/07/08 04:56:59;;;;;;;1.85;1.63;;;16.60;99.90;;;;;;5036885;28;20680;-84
2022/07/08 04:59:25;;;;;;;2.50;1.83;;;16.80;99.90;;;;;;5055097;28;20294;-84
2022/07/08 05:01:51;;;;;;;1.77;1.45;;;16.90;99.90;;;;;;5054770;28;20238;-84
2022/07/08 05:04:16;;;;;;;3.08;1.95;;;17.00;99.90;;;;;;5058587;28;20191;-84
2022/07/08 05:06:42;;;;;;;2.63;1.58;;;17.00;99.90;;;;;;5060466;28;20192;-87
2022/07/08 05:09:08;;;;;;;2.78;1.58;;;17.20;99.90;;;;;;5058263;28;20225;-84
2022/07/08 05:11:33;;;;;;;2.85;1.50;;;17.30;99.90;;;;;;5038588;28;20180;-91
2022/07/08 05:13:59;;;;;;;2.22;1.58;;;17.40;99.90;;;;;;5043851;28;20184;-94
2022/07/08 05:16:25;;;;;;;1.52;1.42;;;17.40;99.90;;;;;;5043827;28;20183;-91
2022/07/08 05:18:51;;;;;;;1.65;1.55;;;17.50;99.90;;;;;;5022825;28;20310;-90
2022/07/08 05:21:16;;;;;;;1.35;1.20;;;17.60;99.90;;;;;;5055993;28;20180;-91
2022/07/08 05:23:42;;;;;;;1.60;1.33;;;17.70;99.90;;;;;;5055025;28;20386;-93
2022/07/08 05:26:07;;;;;;;3.10;1.20;;;17.80;99.90;;;;;;5056819;28;20183;-91
2022/07/08 05:28:33;;;;;;;1.42;1.27;;;18.00;99.90;;;;;;5057034;28;20203;-88
2022/07/08 05:30:59;;;;;;;1.20;1.00;;;18.10;99.90;;;;;;5055833;28;20177;-92
2022/07/08 05:33:24;;;;;;;1.10;1.05;;;18.10;99.90;;;;;;5038203;28;20180;-88
2022/07/08 05:35:50;;;;;;;1.48;1.20;;;18.10;99.90;;;;;;5021338;28;20689;-90
2022/07/08 05:38:16;;;;;;;1.48;1.10;;;18.20;99.90;;;;;;5055363;28;20315;-90
2022/07/08 05:40:42;;;;;;;1.52;1.15;;;18.30;99.90;;;;;;5055435;28;20203;-90
2022/07/08 05:43:08;;;;;;;1.30;1.08;;;18.40;99.90;;;;;;5038098;28;20506;-92
2022/07/08 05:45:33;;;;;;;1.83;1.35;;;18.50;99.90;;;;;;5055777;28;20637;-89
2022/07/08 05:47:59;;;;;;;2.20;1.30;;;18.60;99.90;;;;;;5046489;28;20192;-90
2022/07/08 05:50:24;;;;;;;8.30;2.38;;;18.60;99.90;;;;;;5050344;28;20175;-88
2022/07/08 05:52:50;;;;;;;3.13;1.35;;;18.60;99.90;;;;;;5019763;28;20537;-86
2022/07/08 05:55:16;;;;;;;2.42;1.42;;;18.70;99.90;;;;;;5037882;28;20183;-89
2022/07/08 05:57:41;;;;;;;1.33;1.17;;;18.80;99.90;;;;;;5037151;28;20196;-86
2022/07/08 06:00:07;;;;;;;1.35;1.08;;;18.90;99.90;;;;;;5033360;28;20278;-87
2022/07/08 06:02:33;;;;;;;2.00;1.38;;;19.10;99.90;;;;;;5020550;28;20569;-87
2022/07/08 06:04:59;;;;;;;2.88;1.33;;;19.20;99.90;;;;;;5054882;28;20305;-86
2022/07/08 06:07:24;;;;;;;1.35;1.25;;;19.40;99.90;;;;;;5040680;28;20209;-86
2022/07/08 06:09:50;;;;;;;1.63;1.13;;;19.50;99.90;;;;;;5056874;28;20180;-86
2022/07/08 06:12:15;;;;;;;1.25;1.10;;;19.60;99.90;;;;;;5037926;28;20237;-87
2022/07/08 06:14:41;;;;;;;3.78;1.10;;;19.70;99.90;;;;;;5054833;28;20896;-86
2022/07/08 06:17:06;;;;;;;4.30;2.50;;;19.80;99.90;;;;;;5012010;28;20192;-85
2022/07/08 06:19:32;;;;;;;4.20;1.30;;;19.90;99.90;;;;;;5025555;28;20604;-85
2022/07/08 06:21:57;;;;;;;1.15;1.10;;;20.10;99.90;;;;;;5044049;28;20188;-84
2022/07/08 06:24:23;;;;;;;1.92;1.63;;;20.10;99.90;;;;;;5043635;28;20579;-84
2022/07/08 06:26:49;;;;;;;1.35;1.17;;;20.20;99.90;;;;;;5027775;28;20211;-84
2022/07/08 06:29:14;;;;;;;1.95;1.50;;;20.30;99.90;;;;;;5038551;28;20211;-85
2022/07/08 06:31:40;;;;;;;1.63;1.27;;;20.40;99.90;;;;;;5030520;28;20177;-85
2022/07/08 06:34:06;;;;;;;5.13;1.77;;;20.50;99.90;;;;;;5044533;28;20664;-85
2022/07/08 06:36:32;;;;;;;1.48;1.38;;;20.50;99.90;;;;;;5044036;28;20254;-85
2022/07/08 06:38:58;;;;;;;1.77;1.48;;;20.60;99.90;;;;;;5049520;28;20222;-86
2022/07/08 06:41:24;;;;;;;1.50;1.20;;;20.80;99.90;;;;;;5033157;28;20541;-85
2022/07/08 06:43:50;;;;;;;1.80;1.63;;;21.00;99.90;;;;;;5051492;28;20203;-85
2022/07/08 06:46:16;;;;;;;1.17;1.10;;;21.20;99.90;;;;;;5047755;28;20215;-85
2022/07/08 06:48:42;;;;;;;1.77;1.52;;;21.40;99.90;;;;;;5057119;28;20227;-85
2022/07/08 06:51:07;;;;;;;1.45;1.35;;;21.40;99.90;;;;;;5052209;28;20184;-85
2022/07/08 06:56:18;;;;;;;1.42;1.20;;;21.60;99.90;;;;;;5043008;28;20206;-84
2022/07/08 06:58:44;;;;;;;1.58;1.48;;;21.70;99.90;;;;;;5056823;28;20639;-85
2022/07/08 07:01:10;;;;;;;3.13;1.92;;;21.60;99.90;;;;;;5053633;28;20172;-84
2022/07/08 07:03:39;;;;;;;3.05;1.25;;;21.40;99.90;;;;;;5054164;28;20258;-83
2022/07/08 07:06:05;;;;;;;1.45;1.25;;;21.40;99.90;;;;;;5054061;28;20176;-85
2022/07/08 07:08:31;;;;;;;1.83;1.08;;;21.40;99.90;;;;;;5054394;28;20175;-84
2022/07/08 07:10:56;;;;;;;1.95;1.30;;;21.30;96.10;;;;;;5035918;28;20308;-85
2022/07/08 07:13:22;;;;;;;1.38;1.10;;;21.30;98.20;;;;;;5035676;28;20258;-86
2022/07/08 07:15:48;;;;;;;0.90;0.88;;;21.20;99.90;;;;;;5035416;28;20656;-86
2022/07/08 07:18:13;;;;;;;1.50;1.40;;;21.10;99.90;;;;;;5035974;28;20180;-85
2022/07/08 07:20:39;;;;;;;1.33;1.10;;;21.10;99.90;;;;;;5053735;28;20212;-85
2022/07/08 07:23:04;;;;;;;2.95;1.20;;;21.10;99.90;;;;;;5035840;28;20239;-85
2022/07/08 07:25:30;;;;;;;1.85;1.33;;;21.10;99.90;;;;;;5036028;28;20208;-86
2022/07/08 07:27:56;;;;;;;1.42;1.33;;;21.20;99.90;;;;;;5036381;28;20198;-85
2022/07/08 07:30:25;;;;;;;2.05;1.85;;;21.20;99.90;;;;;;5035872;28;20179;-85
2022/07/08 07:32:51;;;;;;;1.10;0.95;;;21.20;99.90;;;;;;5037079;28;20625;-85
2022/07/08 07:35:17;;;;;;;3.33;1.50;;;21.10;99.80;;;;;;5054212;28;20190;-85
2022/07/08 07:37:43;;;;;;;1.45;1.05;;;21.10;99.90;;;;;;5053368;28;20188;-87
2022/07/08 07:40:09;;;;;;;0.77;0.77;;;21.10;99.90;;;;;;5053463;28;20222;-86
2022/07/08 07:42:34;;;;;;;1.05;0.95;;;21.10;99.90;;;;;;5055333;28;20214;-86
2022/07/08 07:45:03;;;;;;;1.25;0.85;;;21.10;99.90;;;;;;5054553;28;20665;-86
2022/07/08 07:47:28;;;;;;;1.10;0.93;;;21.10;99.90;;;;;;5055708;28;20258;-86
2022/07/08 07:49:54;;;;;;;1.52;1.10;;;21.20;99.90;;;;;;5056818;28;20657;-86
2022/07/08 07:52:19;;;;;;;2.03;1.05;;;21.20;99.90;;;;;;5054964;28;20629;-86
2022/07/08 07:54:45;;;;;;;2.42;1.23;;;21.40;99.90;;;;;;5021414;28;20629;-86
2022/07/08 07:57:11;;;;;;;1.65;1.50;;;21.40;99.90;;;;;;5038910;28;20175;-86
2022/07/08 07:59:37;;;;;;;1.88;1.50;;;21.40;99.90;;;;;;5037833;28;20208;-86
2022/07/08 08:02:03;;;;;;;2.13;1.30;;;21.60;99.90;;;;;;5023913;28;20180;-86
2022/07/08 08:04:28;;;;;;;1.70;1.52;;;21.70;99.90;;;;;;5037905;28;20286;-86
2022/07/08 08:06:54;;;;;;;1.30;1.20;;;21.70;99.90;;;;;;5054415;28;20594;-86
2022/07/08 08:09:19;;;;;;;1.20;0.95;;;21.90;99.10;;;;;;5035693;28;20188;-86
2022/07/08 08:11:45;;;;;;;1.33;1.10;;;22.10;99.70;;;;;;5035648;28;20176;-87
2022/07/08 08:14:11;;;;;;;1.23;1.13;;;22.20;95.60;;;;;;5053283;28;20183;-87
2022/07/08 08:16:36;;;;;;;1.95;1.08;;;22.20;95.20;;;;;;5035634;28;20184;-87
2022/07/08 08:19:02;;;;;;;1.60;1.50;;;22.30;94.80;;;;;;5053381;28;20211;-86
2022/07/08 08:21:29;;;;;;;2.35;1.00;;;22.50;94.20;;;;;;5053396;28;20175;-87
2022/07/08 08:23:55;;;;;;;1.15;1.00;;;22.60;96.60;;;;;;5034887;28;20285;-87
2022/07/08 08:26:22;;;;;;;1.30;1.02;;;22.70;92.60;;;;;;5035126;28;20178;-86
2022/07/08 08:28:49;;;;;;;1.75;1.35;;;22.60;92.20;;;;;;5053349;28;20195;-87
2022/07/08 08:31:14;;;;;;;1.42;0.95;;;22.40;92.10;;;;;;5053098;28;20641;-88
2022/07/08 08:33:40;;;;;;;1.33;1.00;;;22.30;90.90;;;;;;5035790;28;20203;-87
2022/07/08 08:36:06;;;;;;;1.85;1.13;;;22.10;91.60;;;;;;5035385;28;20262;-87
2022/07/08 08:38:32;;;;;;;52.20;10.93;;;22.10;91.00;;;;;;5035459;28;20191;-86
2022/07/08 08:40:59;;;;;;;1.95;1.40;;;22.20;93.00;;;;;;5035199;28;20759;-87
2022/07/08 08:43:25;;;;;;;1.25;1.15;;;22.20;90.60;;;;;;5052883;28;20211;-88
2022/07/08 08:45:52;;;;;;;1.05;0.95;;;22.30;90.70;;;;;;5053157;28;20183;-87
2022/07/08 08:48:22;;;;;;;1.10;1.00;;;22.40;92.60;;;;;;5035127;28;20308;-87
2022/07/08 08:50:56;;;;;;;0.98;0.95;;;22.40;92.90;;;;;;5053232;28;20234;-86
2022/07/08 08:53:30;;;;;;;1.30;1.20;;;22.30;92.90;;;;;;5052914;28;20171;-86
2022/07/08 08:55:57;;;;;;;1.65;1.20;;;22.20;94.20;;;;;;5052987;28;20217;-87
2022/07/08 08:58:23;;;;;;;1.58;1.48;;;22.10;94.20;;;;;;5052721;28;20183;-87
2022/07/08 09:00:49;;;;;;;1.25;1.15;;;22.10;94.90;;;;;;5052943;28;20204;-87
2022/07/08 09:03:15;;;;;;;1.27;1.17;;;21.90;95.30;;;;;;5034751;28;20656;-87
2022/07/08 09:05:41;;;;;;;1.75;1.20;;;21.80;95.50;;;;;;5052752;28;20172;-88
2022/07/08 09:08:07;;;;;;;1.02;1.00;;;21.80;96.70;;;;;;5052797;28;20176;-86
2022/07/08 09:10:34;;;;;;;1.50;1.40;;;21.70;96.80;;;;;;5052278;28;20180;-88
2022/07/08 09:13:15;;;;;;;1.27;1.17;;;21.70;96.20;;;;;;5052823;28;20246;-87
2022/07/08 09:15:46;;;;;;;1.20;1.13;;;21.70;97.40;;;;;;5052879;28;20188;-88
2022/07/08 09:18:17;;;;;;;2.05;1.35;;;21.70;98.70;;;;;;5052987;28;20186;-87
2022/07/08 09:20:50;;;;;;;1.63;1.30;;;21.70;99.60;;;;;;5052584;28;20192;-86
2022/07/08 09:23:24;;;;;;;1.40;1.30;;;21.70;99.90;;;;;;5034446;28;20263;-87
2022/07/08 09:25:55;;;;;;;6.07;1.70;;;21.80;99.90;;;;;;5034705;28;20187;-84
2022/07/08 09:28:41;;;;;;;1.48;1.30;;;21.90;99.90;;;;;;5034724;28;20184;-86
2022/07/08 09:31:09;;;;;;;1.48;1.10;;;22.00;99.90;;;;;;5034941;28;20203;-87
2022/07/08 09:33:35;;;;;;;4.53;1.50;;;22.00;99.90;;;;;;5052475;28;20172;-86
2022/07/08 09:36:02;;;;;;;2.92;1.85;;;22.20;99.80;;;;;;5054992;28;20176;-86
2022/07/08 09:38:29;;;;;;;2.38;1.38;;;22.20;98.40;;;;;;5055443;28;20183;-86
2022/07/08 09:41:09;;;;;;;2.58;1.40;;;22.20;97.60;;;;;;5037979;28;20306;-86
2022/07/08 09:43:49;;;;;;;1.48;1.20;;;22.20;97.40;;;;;;5055551;28;20707;-86
2022/07/08 09:46:15;;;;;;;1.25;1.15;;;22.20;96.70;;;;;;5054939;28;20621;-87
2022/07/08 09:48:41;;;;;;;1.48;1.30;;;22.20;96.70;;;;;;5054950;28;20218;-86
2022/07/08 09:51:10;;;;;;;1.30;1.20;;;22.20;95.30;;;;;;5054567;28;20211;-86
2022/07/08 09:53:37;;;;;;;1.83;1.30;;;22.20;93.10;;;;;;5055154;28;20180;-87
2022/07/08 09:56:03;;;;;;;1.05;0.95;;;22.20;93.80;;;;;;5055191;28;20176;-87
2022/07/08 09:58:35;;;;;;;2.08;1.10;;;22.20;92.90;;;;;;5037391;28;20184;-87
2022/07/08 10:01:02;;;;;;;2.17;1.20;;;22.10;92.50;;;;;;5055232;28;20242;-86
2022/07/08 10:03:28;;;;;;;1.60;1.40;;;22.10;93.70;;;;;;5020544;28;20652;-86
2022/07/08 10:05:54;;;;;;;2.45;1.85;;;22.20;94.40;;;;;;5020656;28;20198;-87
2022/07/08 10:08:21;;;;;;;1.20;1.10;;;22.40;93.70;;;;;;5054719;28;20518;-87
2022/07/08 10:10:53;;;;;;;2.10;1.13;;;22.60;91.80;;;;;;5037279;28;20175;-85
2022/07/08 10:13:24;;;;;;;1.63;0.93;;;22.50;91.50;;;;;;5076704;28;20160;-86
2022/07/08 10:15:55;;;;;;;1.73;1.33;;;22.50;92.50;;;;;;5075108;28;20180;-86
2022/07/08 10:18:43;;;;;;;1.40;1.25;;;22.50;91.90;;;;;;5077757;28;20220;-86
2022/07/08 10:21:11;;;;;;;2.33;1.70;;;22.40;92.60;;;;;;5076739;28;20200;-86
2022/07/08 10:23:45;;;;;;;3.22;1.98;;;22.40;91.90;;;;;;5078899;28;20216;-86
2022/07/08 10:26:12;;;;;;;1.20;1.10;;;22.30;91.90;;;;;;5079444;28;20152;-87
2022/07/08 10:28:41;;;;;;;1.30;1.17;;;22.40;94.20;;;;;;5079097;28;20176;-88
2022/07/08 10:31:24;;;;;;;1.17;1.08;;;22.40;93.10;;;;;;5079212;28;20160;-87
2022/07/08 10:33:53;;;;;;;1.08;1.00;;;22.60;92.30;;;;;;5078248;28;20183;-86
2022/07/08 10:36:20;;;;;;;1.50;1.40;;;22.60;91.10;;;;;;5078310;28;20164;-87
2022/07/08 10:38:45;;;;;;;3.20;1.15;;;22.60;92.20;;;;;;5078513;28;20168;-87
2022/07/08 10:41:13;;;;;;;2.58;1.52;;;22.60;91.70;;;;;;5078709;28;20236;-88
2022/07/08 10:43:52;;;;;;;1.20;1.10;;;22.40;90.90;;;;;;5076993;28;20183;-88
2022/07/08 10:46:20;;;;;;;1.67;1.35;;;22.40;91.80;;;;;;5055831;28;20674;-86
2022/07/08 10:48:56;;;;;;;3.97;1.52;;;22.30;93.30;;;;;;5055948;28;20682;-86
2022/07/08 10:51:24;;;;;;;1.52;1.30;;;22.30;92.60;;;;;;5038383;28;20176;-86
2022/07/08 10:53:55;;;;;;;1.60;1.50;;;22.20;94.00;;;;;;5055356;28;20180;-86
2022/07/08 10:56:50;;;;;;;4.00;1.40;;;22.30;94.40;;;;;;5055994;28;20313;-87
2022/07/08 10:59:19;;;;;;;1.83;1.30;;;22.30;94.60;;;;;;5052252;28;20189;-87
2022/07/08 11:01:52;;;;;;;3.95;1.48;;;22.30;94.20;;;;;;5054293;28;20266;-86
2022/07/08 11:04:26;;;;;;;2.42;1.52;;;22.30;93.80;;;;;;5051674;28;20182;-86
2022/07/08 11:06:54;;;;;;;1.92;1.25;;;22.40;92.70;;;;;;5055734;28;20217;-85
2022/07/08 11:09:22;;;;;;;1.38;1.27;;;22.40;93.40;;;;;;5055448;28;20255;-86
2022/07/08 11:11:49;;;;;;;1.83;1.50;;;22.40;94.10;;;;;;5037088;28;20188;-86
2022/07/08 11:14:15;;;;;;;1.60;1.42;;;22.40;93.90;;;;;;5053275;28;20230;-86
2022/07/08 11:16:41;;;;;;;1.73;1.50;;;22.40;94.60;;;;;;5053368;28;20188;-85
2022/07/08 11:19:07;;;;;;;1.30;1.13;;;22.50;93.10;;;;;;5035196;28;20661;-85
2022/07/08 11:21:33;;;;;;;1.50;1.40;;;22.60;93.50;;;;;;5053868;28;20184;-85
2022/07/08 11:23:59;;;;;;;1.90;1.25;;;22.70;93.10;;;;;;5035084;28;20227;-86
2022/07/08 11:26:25;;;;;;;1.77;1.60;;;22.80;94.00;;;;;;5035340;28;20178;-85
2022/07/08 11:28:51;;;;;;;1.58;1.10;;;22.90;94.30;;;;;;5052612;28;20279;-86
2022/07/08 11:31:23;;;;;;;1.65;1.52;;;23.00;92.50;;;;;;5035573;28;20645;-86
2022/07/08 11:33:49;;;;;;;1.45;1.30;;;23.20;94.00;;;;;;5052925;28;20661;-86
2022/07/08 11:36:18;;;;;;;1.48;1.38;;;23.50;94.40;;;;;;5053456;28;20180;-86
2022/07/08 11:38:45;;;;;;;2.08;1.60;;;23.90;92.80;;;;;;5035187;28;20191;-87
2022/07/08 11:41:12;;;;;;;1.52;1.33;;;24.10;90.40;;;;;;5052892;28;20549;-88
2022/07/08 11:43:38;;;;;;;2.97;1.70;;;24.10;91.10;;;;;;5034931;28;20190;-87
2022/07/08 11:46:13;;;;;;;4.25;1.63;;;24.30;89.50;;;;;;5018618;28;20589;-87
2022/07/08 11:48:39;;;;;;;1.55;1.30;;;24.50;90.70;;;;;;5052862;28;20641;-87
2022/07/08 11:51:05;;;;;;;1.58;1.45;;;24.70;91.00;;;;;;5035152;28;20179;-88
2022/07/08 11:53:31;;;;;;;1.90;1.55;;;24.80;86.80;;;;;;5001900;28;20604;-86
2022/07/08 11:55:57;;;;;;;1.42;1.33;;;24.50;87.80;;;;;;5034888;28;20179;-87
2022/07/08 11:58:23;;;;;;;2.38;1.90;;;24.50;89.20;;;;;;5034156;28;20184;-87
2022/07/08 12:00:50;;;;;;;1.70;1.60;;;24.40;87.50;;;;;;5052144;28;20195;-87
2022/07/08 12:03:16;;;;;;;2.58;1.80;;;24.20;90.00;;;;;;5034780;28;20854;-87
2022/07/08 12:05:41;;;;;;;2.58;2.05;;;24.20;90.60;;;;;;5052288;28;20314;-87
2022/07/08 12:08:11;;;;;;;2.45;1.80;;;24.10;89.10;;;;;;5052596;28;20194;-88
2022/07/08 12:10:36;;;;;;;4.65;2.03;;;24.00;89.40;;;;;;5052446;28;20180;-87
2022/07/08 12:13:02;;;;;;;1.88;1.70;;;23.80;90.60;;;;;;5035930;28;20190;-88
2022/07/08 12:15:36;;;;;;;3.33;1.90;;;23.70;90.90;;;;;;5052674;28;20191;-87
2022/07/08 12:18:03;;;;;;;1.80;1.70;;;23.60;92.10;;;;;;5052472;28;20184;-87
2022/07/08 12:20:37;;;;;;;2.00;1.90;;;23.60;90.90;;;;;;5051811;28;20250;-87
2022/07/08 12:23:03;;;;;;;1.70;1.60;;;23.70;90.70;;;;;;5033449;28;20260;-87
2022/07/08 12:25:48;;;;;;;2.20;2.00;;;23.90;90.50;;;;;;5039772;28;20172;-87
2022/07/08 12:28:21;;;;;;;1.83;1.67;;;23.80;91.60;;;;;;5051609;28;20170;-88
2022/07/08 12:30:47;;;;;;;2.50;1.73;;;24.00;91.50;;;;;;5045887;28;20245;-87
2022/07/08 12:33:12;;;;;;;2.08;1.88;;;23.90;90.70;;;;;;5052116;28;20672;-88
2022/07/08 12:35:38;;;;;;;2.10;1.83;;;23.90;90.60;;;;;;5052600;28;20640;-86
2022/07/08 12:38:09;;;;;;;2.03;1.73;;;23.90;92.10;;;;;;5035466;28;20183;-86
2022/07/08 12:40:42;;;;;;;2.45;1.45;;;23.70;90.80;;;;;;5053176;28;20207;-88
2022/07/08 12:43:10;;;;;;;1.70;1.58;;;23.80;91.10;;;;;;5053405;28;20217;-87
2022/07/08 12:45:37;;;;;;;2.40;1.80;;;23.80;89.70;;;;;;5036624;28;20172;-87
2022/07/08 12:48:03;;;;;;;2.60;1.90;;;23.80;91.60;;;;;;5055094;28;20179;-86
2022/07/08 12:50:31;;;;;;;1.40;1.30;;;23.80;91.10;;;;;;5053733;28;20246;-86